Time;durP1;ratioP1;P1;durP2;ratioP2;P2;SDS_P1;SDS_P2;PMS_P1;PMS_P2;Temp;Humidity;BMP_temperature;BMP_pressure;BME280_temperature;BME280_humidity;BME280_pressure;Samples;Min_cycle;Max_cycle;Signal;HPM_P1;HPM_P2
2022/09/25 00:00:30;;;;;;;11.52;3.40;;;;;;;11.23;100.00;101553.13;6049685;23;20017;-92
2022/09/25 00:03:10;;;;;;;10.77;3.83;;;;;;;11.09;100.00;101531.69;6121259;23;20045;-92
2022/09/25 00:06:01;;;;;;;12.07;3.42;;;;;;;11.04;100.00;101529.19;6120977;23;20088;-92
2022/09/25 00:08:53;;;;;;;8.55;3.15;;;;;;;11.05;100.00;101538.66;6119337;23;20604;-92
2022/09/25 00:11:49;;;;;;;7.78;3.50;;;;;;;11.12;100.00;101560.22;6120676;23;20037;-92
2022/09/25 00:14:40;;;;;;;7.80;3.30;;;;;;;11.01;100.00;101542.19;6120957;23;20098;-91
2022/09/25 00:17:34;;;;;;;9.18;3.40;;;;;;;10.93;100.00;101543.16;6120214;23;20009;-91
2022/09/25 00:20:06;;;;;;;10.37;3.63;;;;;;;10.89;100.00;101541.50;6122820;23;20020;-93
2022/09/25 00:22:53;;;;;;;12.75;3.80;;;;;;;10.93;100.00;101549.22;6096469;23;20249;-91
2022/09/25 00:25:42;;;;;;;7.95;3.20;;;;;;;10.88;100.00;101543.22;6097835;23;20002;-91
2022/09/25 00:28:07;;;;;;;10.52;3.88;;;;;;;10.98;100.00;101568.19;6096772;23;20006;-91
2022/09/25 00:30:43;;;;;;;11.50;3.70;;;;;;;10.85;100.00;101542.44;6124263;23;20005;-93
2022/09/25 00:33:11;;;;;;;12.90;4.07;;;;;;;10.83;100.00;101545.03;6097211;23;20006;-92
2022/09/25 00:36:03;;;;;;;13.95;3.92;;;;;;;10.98;100.00;101560.41;6097407;23;20424;-92
2022/09/25 00:38:52;;;;;;;;;;;;;;;;;;;;;
2022/09/25 00:41:37;;;;;;;10.15;3.67;;;;;;;10.90;100.00;101551.88;6121630;23;20077;-93
2022/09/25 00:47:52;;;;;;;11.90;3.53;;;;;;;10.94;100.00;101553.53;6123419;23;20391;-93
2022/09/25 00:51:01;;;;;;;8.75;3.50;;;;;;;10.94;100.00;101568.22;6094282;23;20089;-93
2022/09/25 00:53:44;;;;;;;13.30;4.30;;;;;;;10.82;100.00;101556.28;6122876;23;20081;-93
2022/09/25 00:59:56;;;;;;;12.35;3.97;;;;;;;10.70;100.00;101543.50;6122272;23;20045;-93
2022/09/25 01:02:43;;;;;;;9.98;3.55;;;;;;;10.75;100.00;101553.78;6090559;23;20010;-93
2022/09/25 01:05:33;;;;;;;13.98;3.92;;;;;;;10.76;100.00;101558.97;6096462;23;20037;-92
2022/09/25 01:08:00;;;;;;;10.90;3.92;;;;;;;10.67;100.00;101546.97;6094807;23;20006;-92
2022/09/25 01:10:31;;;;;;;11.45;4.00;;;;;;;10.76;100.00;101568.47;6122635;23;20031;-93
2022/09/25 01:13:03;;;;;;;11.75;4.22;;;;;;;10.69;100.00;101557.31;6095067;23;20099;-93
2022/09/25 01:15:49;;;;;;;11.85;4.00;;;;;;;10.74;100.00;101571.09;6097153;23;20001;-93
2022/09/25 01:18:55;;;;;;;10.85;4.00;;;;;;;10.72;100.00;101580.59;6096189;23;20597;-93
2022/09/25 01:22:01;;;;;;;10.05;4.28;;;;;;;10.68;100.00;101577.22;6067191;23;20033;-93
2022/09/25 01:25:01;;;;;;;;;;;;;;;10.69;100.00;101578.94;6091897;23;20436;-93
2022/09/25 01:28:06;;;;;;;8.20;4.10;;;;;;;10.65;100.00;101578.97;5975752;24;19918;-93
2022/09/25 01:30:46;;;;;;;9.80;4.00;;;;;;;10.53;100.00;101560.97;6091689;23;20608;-94
2022/09/25 01:33:29;;;;;;;14.88;4.30;;;;;;;10.44;100.00;101556.75;6066784;23;20006;-93
2022/09/25 01:36:32;;;;;;;11.70;4.35;;;;;;;10.43;100.00;101556.78;6091499;23;20452;-93
2022/09/25 01:39:55;;;;;;;13.77;4.10;;;;;;;10.53;100.00;101584.31;6062606;23;20006;-93
2022/09/25 01:42:41;;;;;;;10.10;4.35;;;;;;;10.49;100.00;101585.22;6089933;23;20013;-93
2022/09/25 01:45:26;;;;;;;10.98;4.20;;;;;;;10.30;100.00;101564.69;6092166;23;20005;-92
2022/09/25 01:48:04;;;;;;;10.98;3.90;;;;;;;10.35;100.00;101572.44;6067154;23;20010;-94
2022/09/25 01:50:48;;;;;;;9.45;4.00;;;;;;;10.24;100.00;101564.75;6092470;23;20041;-93
2022/09/25 01:53:39;;;;;;;11.13;4.05;;;;;;;10.27;100.00;101574.22;6065578;23;20048;-92
2022/09/25 01:56:15;;;;;;;9.82;4.05;;;;;;;10.31;100.00;101588.84;6067354;23;20007;-93
2022/09/25 01:58:58;;;;;;;9.18;3.92;;;;;;;10.16;100.00;101579.50;6067593;23;20011;-92
2022/09/25 02:01:35;;;;;;;7.50;3.70;;;;;;;10.14;100.00;101576.06;6090605;23;20073;-92
2022/09/25 02:04:28;;;;;;;13.90;4.20;;;;;;;10.22;100.00;101586.38;6093093;23;20093;-92
2022/09/25 02:07:08;;;;;;;13.32;4.45;;;;;;;10.15;100.00;101587.28;6067508;23;20018;-93
2022/09/25 02:09:44;;;;;;;7.55;4.13;;;;;;;10.02;100.00;101577.91;6091558;23;20041;-92
2022/09/25 02:12:33;;;;;;;11.50;4.43;;;;;;;10.09;100.00;101585.63;6090841;23;20380;-93
2022/09/25 02:15:43;;;;;;;;;;;;;;;;;;;;;
2022/09/25 02:21:16;;;;;;;9.85;4.20;;;;;;;10.00;100.00;101585.69;6121658;23;20543;-92
2022/09/25 02:23:47;;;;;;;12.10;4.45;;;;;;;9.98;100.00;101577.06;6096331;23;20010;-92
2022/09/25 02:26:33;;;;;;;10.50;4.10;;;;;;;9.97;100.00;101579.69;6095906;23;20010;-92
2022/09/25 02:29:03;;;;;;;10.50;3.78;;;;;;;9.75;100.00;101558.31;6095899;23;20017;-93
2022/09/25 02:31:59;;;;;;;9.15;3.88;;;;;;;9.71;100.00;101567.81;6094607;23;20092;-94
2022/09/25 02:34:36;;;;;;;10.30;3.97;;;;;;;9.72;100.00;101573.88;6094686;23;20013;-92
2022/09/25 02:37:11;;;;;;;11.40;4.15;;;;;;;9.58;100.00;101563.63;6095395;23;20432;-92
2022/09/25 02:39:36;;;;;;;11.45;4.40;;;;;;;9.52;100.00;101558.50;6094993;23;20012;-92
2022/09/25 02:42:29;;;;;;;8.32;3.85;;;;;;;9.64;100.00;101588.59;6121316;23;20089;-91
2022/09/25 02:45:02;;;;;;;10.65;4.20;;;;;;;9.43;100.00;101562.00;6095204;23;20006;-91
2022/09/25 02:47:58;;;;;;;10.30;4.22;;;;;;;9.56;100.00;101587.78;6095772;23;20006;-92
2022/09/25 02:51:03;;;;;;;9.48;4.38;;;;;;;9.49;100.00;101593.00;6121950;23;20524;-92
2022/09/25 02:53:50;;;;;;;13.18;4.65;;;;;;;9.26;100.00;101558.69;6093469;23;20013;-92
2022/09/25 02:57:17;;;;;;;12.05;4.25;;;;;;;9.30;100.00;101560.38;6094596;23;20396;-91
2022/09/25 02:59:58;;;;;;;8.57;4.05;;;;;;;9.28;100.00;101559.53;6034764;23;20025;-92
2022/09/25 03:02:27;;;;;;;9.98;4.40;;;;;;;9.14;100.00;101545.84;6036021;23;20085;-92
2022/09/25 03:05:18;;;;;;;11.27;4.25;;;;;;;9.21;100.00;101557.84;6072707;23;20085;-91
2022/09/25 03:10:49;;;;;;;12.15;4.35;;;;;;;9.19;100.00;101567.38;6129348;23;20016;-93
2022/09/25 03:13:18;;;;;;;10.05;4.18;;;;;;;8.98;100.00;101534.75;6121953;23;20008;-92
2022/09/25 03:16:10;;;;;;;10.15;4.28;;;;;;;8.94;100.00;101543.38;6122078;23;20076;-92
2022/09/25 03:18:37;;;;;;;12.35;4.35;;;;;;;9.02;100.00;101559.69;6095756;23;20317;-92
2022/09/25 03:21:11;;;;;;;9.90;4.50;;;;;;;8.86;100.00;101546.88;6067342;23;20022;-92
2022/09/25 03:23:40;;;;;;;8.90;4.47;;;;;;;8.89;100.00;101557.19;6092418;23;20006;-92
2022/09/25 03:26:06;;;;;;;12.18;4.80;;;;;;;8.84;100.00;101557.22;6092818;23;20078;-92
2022/09/25 03:28:35;;;;;;;12.20;4.57;;;;;;;8.79;100.00;101551.22;6067940;23;20038;-92
2022/09/25 03:31:06;;;;;;;11.18;4.68;;;;;;;8.76;100.00;101547.78;6094492;23;20006;-93
2022/09/25 03:33:43;;;;;;;11.55;4.50;;;;;;;8.86;100.00;101564.97;6064865;23;20006;-93
2022/09/25 03:36:23;;;;;;;11.70;5.60;;;;;;;8.92;100.00;101577.88;6094252;23;20006;-92
2022/09/25 03:38:56;;;;;;;13.02;4.95;;;;;;;8.77;100.00;101545.19;6068282;23;20044;-92
2022/09/25 03:41:32;;;;;;;14.18;5.50;;;;;;;8.86;100.00;101570.16;6068385;23;20060;-93
2022/09/25 03:44:03;;;;;;;10.75;4.72;;;;;;;8.73;100.00;101540.06;6067531;23;20012;-92
2022/09/25 03:46:35;;;;;;;11.48;5.18;;;;;;;8.86;100.00;101567.56;6067716;23;20421;-93
2022/09/25 03:49:02;;;;;;;10.98;5.43;;;;;;;8.77;100.00;101557.25;6068265;23;20017;-92
2022/09/25 03:51:40;;;;;;;11.02;4.95;;;;;;;8.73;100.00;101559.84;6067870;23;20017;-92
2022/09/25 03:54:06;;;;;;;13.35;4.88;;;;;;;8.65;100.00;101553.88;6067053;23;20014;-92
2022/09/25 03:56:40;;;;;;;11.73;5.15;;;;;;;8.71;100.00;101561.59;6067698;23;20006;-92
2022/09/25 03:59:08;;;;;;;11.00;5.40;;;;;;;8.66;100.00;101565.94;6068471;23;20755;-93
2022/09/25 04:01:35;;;;;;;12.15;5.53;;;;;;;8.62;100.00;101560.78;6067880;23;20412;-92
2022/09/25 04:04:02;;;;;;;12.10;5.20;;;;;;;8.49;100.00;101541.00;6093422;23;20084;-92
2022/09/25 04:06:30;;;;;;;16.08;5.57;;;;;;;8.57;100.00;101563.38;6068445;23;20027;-92
2022/09/25 04:09:00;;;;;;;11.20;5.15;;;;;;;8.52;100.00;101556.53;6094172;23;20006;-93
2022/09/25 04:11:30;;;;;;;10.00;5.05;;;;;;;8.50;100.00;101553.06;6093778;23;20010;-92
2022/09/25 04:13:58;;;;;;;11.85;5.13;;;;;;;8.49;100.00;101561.69;6093376;23;20010;-93
2022/09/25 04:16:27;;;;;;;15.52;5.35;;;;;;;8.45;100.00;101552.25;6067624;23;20082;-93
2022/09/25 04:19:03;;;;;;;9.77;5.38;;;;;;;8.43;100.00;101559.13;6071394;23;20081;-92
2022/09/25 04:21:28;;;;;;;11.18;5.25;;;;;;;8.40;100.00;101552.22;6096636;23;20006;-92
2022/09/25 04:26:41;;;;;;;12.35;5.35;;;;;;;8.45;100.00;101563.44;6122590;23;20400;-92
2022/09/25 04:29:07;;;;;;;13.77;5.55;;;;;;;8.47;100.00;101561.69;6096902;23;20005;-93
2022/09/25 04:34:35;;;;;;;14.90;5.50;;;;;;;8.42;100.00;101563.44;6122194;23;20017;-92
2022/09/25 04:37:03;;;;;;;11.82;4.95;;;;;;;8.26;100.00;101538.47;6096341;23;20010;-92
2022/09/25 04:39:29;;;;;;;11.07;5.68;;;;;;;8.33;100.00;101550.53;6097011;23;20056;-92
2022/09/25 04:41:57;;;;;;;12.77;5.35;;;;;;;8.41;100.00;101560.84;6122125;23;20281;-92
2022/09/25 04:44:31;;;;;;;10.48;5.68;;;;;;;8.29;100.00;101554.84;6096520;23;20002;-92
2022/09/25 04:47:03;;;;;;;10.60;5.30;;;;;;;8.29;100.00;101548.81;6096878;23;20044;-91
2022/09/25 04:49:34;;;;;;;10.30;5.28;;;;;;;8.34;100.00;101565.16;6097409;23;20044;-92
2022/09/25 04:52:00;;;;;;;13.20;5.25;;;;;;;8.35;100.00;101559.16;6094652;23;20017;-91
2022/09/25 04:54:28;;;;;;;9.23;4.75;;;;;;;8.21;100.00;101550.53;6095510;23;20010;-91
2022/09/25 04:57:01;;;;;;;10.40;5.13;;;;;;;8.31;100.00;101563.47;6120604;23;20017;-92
2022/09/25 04:59:34;;;;;;;14.23;5.30;;;;;;;8.28;100.00;101567.75;6122380;23;20009;-92
2022/09/25 05:02:02;;;;;;;11.93;5.00;;;;;;;8.24;100.00;101560.88;6095832;23;20013;-92
2022/09/25 05:04:53;;;;;;;11.25;4.97;;;;;;;8.09;100.00;101535.94;6096717;23;20006;-93
2022/09/25 05:07:25;;;;;;;9.50;5.13;;;;;;;8.17;100.00;101549.72;6080995;23;20006;-92
2022/09/25 05:09:50;;;;;;;10.90;5.00;;;;;;;8.07;100.00;101529.06;6096147;23;20014;-93
2022/09/25 05:12:16;;;;;;;9.75;4.85;;;;;;;8.04;100.00;101529.94;6097022;23;20053;-93
2022/09/25 05:14:43;;;;;;;11.32;5.30;;;;;;;8.20;100.00;101556.56;6095557;23;20451;-93
2022/09/25 05:17:17;;;;;;;11.15;5.10;;;;;;;8.14;100.00;101543.69;6095883;23;20364;-93
2022/09/25 05:19:52;;;;;;;11.25;5.10;;;;;;;8.11;100.00;101533.38;6103907;23;20013;-93
2022/09/25 05:22:18;;;;;;;11.57;5.03;;;;;;;8.19;100.00;101554.84;6121272;23;20005;-93
2022/09/25 05:24:46;;;;;;;11.23;5.13;;;;;;;8.09;100.00;101543.69;6120574;23;20044;-93
2022/09/25 05:27:21;;;;;;;9.50;5.25;;;;;;;8.14;100.00;101548.84;6121101;23;20010;-92
2022/09/25 05:29:49;;;;;;;12.80;5.28;;;;;;;8.09;100.00;101524.75;6120825;23;20734;-93
2022/09/25 05:32:18;;;;;;;13.88;5.57;;;;;;;8.11;100.00;101546.28;6120911;23;20064;-92
2022/09/25 05:34:49;;;;;;;10.27;4.85;;;;;;;8.01;100.00;101522.19;6120770;23;20443;-92
2022/09/25 05:37:14;;;;;;;11.30;5.13;;;;;;;8.10;100.00;101544.56;6120866;23;20048;-92
2022/09/25 05:39:40;;;;;;;11.40;5.43;;;;;;;8.08;100.00;101547.13;6119553;23;20010;-92
2022/09/25 05:42:18;;;;;;;12.02;5.40;;;;;;;8.12;100.00;101556.59;6122218;23;19998;-92
2022/09/25 05:44:49;;;;;;;12.02;5.85;;;;;;;8.08;100.00;101547.13;6122067;23;20096;-93
2022/09/25 05:47:14;;;;;;;15.55;5.63;;;;;;;8.05;100.00;101541.13;6120893;23;20359;-92
2022/09/25 05:49:43;;;;;;;12.73;5.72;;;;;;;8.10;100.00;101558.34;6124108;23;20745;-93
2022/09/25 05:52:14;;;;;;;15.93;6.53;;;;;;;8.08;100.00;101554.88;6124693;23;20041;-92
2022/09/25 05:54:43;;;;;;;11.65;6.03;;;;;;;8.02;100.00;101546.28;6121977;23;20092;-92
2022/09/25 05:57:09;;;;;;;13.50;6.45;;;;;;;8.05;100.00;101548.88;6120308;23;20022;-92
2022/09/25 05:59:40;;;;;;;17.40;6.78;;;;;;;8.20;100.00;101564.31;6120916;23;20018;-92
2022/09/25 06:02:18;;;;;;;13.30;6.60;;;;;;;8.22;100.00;101580.69;6120144;23;20025;-92
2022/09/25 06:04:46;;;;;;;14.50;7.00;;;;;;;8.15;100.00;101555.72;6121244;23;20002;-92
2022/09/25 06:07:21;;;;;;;14.65;6.43;;;;;;;8.20;100.00;101562.59;6120391;23;20010;-91
2022/09/25 06:09:49;;;;;;;16.00;6.40;;;;;;;8.09;100.00;101546.28;6119655;23;20066;-91
2022/09/25 06:12:17;;;;;;;19.77;6.90;;;;;;;8.28;100.00;101570.31;6121943;23;20012;-92
2022/09/25 06:14:42;;;;;;;17.75;7.28;;;;;;;8.13;100.00;101539.38;6121993;23;20009;-92
2022/09/25 06:17:10;;;;;;;14.15;7.18;;;;;;;8.33;100.00;101571.19;6119513;23;20010;-92
2022/09/25 06:19:40;;;;;;;17.05;7.15;;;;;;;8.36;100.00;101572.94;6108023;23;20018;-92
2022/09/25 06:22:14;;;;;;;14.57;7.28;;;;;;;8.18;100.00;101533.34;6091283;23;20020;-92
2022/09/25 06:24:50;;;;;;;14.27;6.97;;;;;;;8.42;100.00;101567.72;6066850;23;20357;-91
2022/09/25 06:27:16;;;;;;;13.40;6.97;;;;;;;8.38;100.00;101548.81;6090481;23;20082;-92
2022/09/25 06:29:46;;;;;;;15.20;6.97;;;;;;;8.41;100.00;101553.09;6067001;23;19999;-92
2022/09/25 06:32:15;;;;;;;13.00;6.65;;;;;;;8.46;100.00;101548.78;6091400;23;20082;-93
2022/09/25 06:34:44;;;;;;;14.75;7.20;;;;;;;8.52;100.00;101556.53;6090306;23;20007;-92
2022/09/25 06:37:17;;;;;;;14.40;7.22;;;;;;;8.60;100.00;101576.28;6087884;23;20033;-92
2022/09/25 06:39:43;;;;;;;14.83;7.30;;;;;;;8.47;100.00;101553.94;6088817;23;20044;-93
2022/09/25 06:42:16;;;;;;;19.55;8.05;;;;;;;8.56;100.00;101556.50;6065899;23;20006;-92
2022/09/25 06:44:44;;;;;;;16.75;8.05;;;;;;;8.73;100.00;101571.06;6087872;23;20006;-92
2022/09/25 06:47:15;;;;;;;16.80;8.35;;;;;;;8.69;100.00;101558.16;6064214;23;20053;-92
2022/09/25 06:49:45;;;;;;;15.82;7.97;;;;;;;8.72;100.00;101557.28;6065953;23;20002;-92
2022/09/25 06:52:13;;;;;;;14.85;7.93;;;;;;;8.68;100.00;101543.50;6090625;23;20444;-92
2022/09/25 06:54:47;;;;;;;14.52;8.02;;;;;;;8.73;100.00;101544.34;6064508;23;20006;-92
2022/09/25 06:57:35;;;;;;;;;;;;;;;;;;;;;
2022/09/25 07:00:23;;;;;;;15.80;8.07;;;;;;;8.95;100.00;101576.13;6092673;23;20411;-93
2022/09/25 07:05:51;;;;;;;15.30;8.15;;;;;;;8.95;100.00;101573.53;6094970;23;20013;-93
2022/09/25 07:08:50;;;;;;;14.15;7.88;;;;;;;8.96;100.00;101569.22;6068107;23;20006;-93
2022/09/25 07:11:32;;;;;;;16.95;8.05;;;;;;;8.99;100.00;101571.81;6095489;23;20013;-93
2022/09/25 07:14:03;;;;;;;18.00;8.05;;;;;;;9.03;100.00;101573.50;6091966;23;20170;-92
2022/09/25 07:16:48;;;;;;;;;;;;;;;;;;;;;
2022/09/25 07:19:24;;;;;;;;;;;;;;;;;;;;;
2022/09/25 07:22:17;;;;;;;16.55;8.77;;;;;;;9.26;100.00;101594.91;6121983;23;20105;-92
2022/09/25 07:24:53;;;;;;;14.60;8.55;;;;;;;9.27;100.00;101590.59;6096118;23;20017;-93
2022/09/25 07:27:31;;;;;;;14.45;8.43;;;;;;;9.20;100.00;101571.69;6121520;23;20006;-92
2022/09/25 07:29:59;;;;;;;14.25;8.55;;;;;;;9.32;100.00;101584.53;6094321;23;20013;-92
2022/09/25 07:32:25;;;;;;;13.70;7.88;;;;;;;9.28;100.00;101561.28;6095944;23;20025;-92
2022/09/25 07:34:57;;;;;;;15.52;8.43;;;;;;;9.40;100.00;101580.16;6096966;23;20005;-92
2022/09/25 07:37:26;;;;;;;17.48;7.78;;;;;;;9.60;100.00;101589.50;6098252;23;20032;-93
2022/09/25 07:39:54;;;;;;;15.40;7.55;;;;;;;9.55;100.00;101570.56;6124102;23;20034;-92
2022/09/25 07:42:28;;;;;;;14.48;7.75;;;;;;;9.56;100.00;101573.13;6098701;23;20006;-93
2022/09/25 07:45:04;;;;;;;15.88;7.30;;;;;;;9.63;100.00;101572.22;6097433;23;20060;-92
2022/09/25 07:47:38;;;;;;;13.98;6.97;;;;;;;9.74;100.00;101580.75;6124057;23;20002;-92
2022/09/25 07:50:06;;;;;;;13.38;6.85;;;;;;;9.76;100.00;101580.72;6096822;23;20514;-92
2022/09/25 07:52:44;;;;;;;15.52;6.93;;;;;;;9.78;100.00;101569.50;6098085;23;20060;-92
2022/09/25 07:55:10;;;;;;;13.57;6.97;;;;;;;9.98;100.00;101586.56;6097610;23;20013;-91
2022/09/25 07:57:36;;;;;;;13.35;6.85;;;;;;;9.90;100.00;101569.38;6098061;23;20006;-92
2022/09/25 08:00:03;;;;;;;12.25;6.53;;;;;;;10.08;100.00;101593.41;6123831;23;20014;-91
2022/09/25 08:02:34;;;;;;;17.33;7.50;;;;;;;10.05;100.00;101567.50;6097771;23;20433;-92
2022/09/25 08:05:02;;;;;;;15.75;7.40;;;;;;;10.18;100.00;101575.19;6097433;23;20010;-92
2022/09/25 08:07:32;;;;;;;18.38;8.23;;;;;;;10.43;100.00;101578.38;6096253;23;20016;-92
2022/09/25 08:10:00;;;;;;;15.77;7.78;;;;;;;10.65;100.00;101592.78;6098025;23;20647;-91
2022/09/25 08:12:29;;;;;;;16.02;7.45;;;;;;;10.81;100.00;101579.63;6097618;23;20010;-92
2022/09/25 08:15:00;;;;;;;15.55;6.85;;;;;;;10.96;100.00;101563.88;6096723;23;20049;-92
2022/09/25 08:17:41;;;;;;;14.77;6.47;;;;;;;11.32;100.00;101570.28;6097384;23;20002;-92
2022/09/25 08:20:12;;;;;;;12.02;5.65;;;;;;;11.53;100.00;101571.69;6104591;23;20037;-91
2022/09/25 08:22:47;;;;;;;11.07;5.07;;;;;;;11.65;100.00;101548.97;6121459;23;20044;-93
2022/09/25 08:28:11;;;;;;;14.20;5.40;;;;;;;12.08;100.00;101582.00;6122695;23;20490;-91
2022/09/25 08:30:43;;;;;;;11.20;5.00;;;;;;;12.02;100.00;101558.75;6123979;23;20002;-92
2022/09/25 08:33:43;;;;;;;11.45;4.93;;;;;;;12.17;100.00;101574.06;6124165;23;20018;-91
2022/09/25 08:39:00;;;;;;;9.85;4.30;;;;;;;12.19;100.00;101564.50;6112769;23;20012;-92
2022/09/25 08:41:47;;;;;;;11.73;4.07;;;;;;;12.16;100.00;101559.34;6145446;23;20006;-91
2022/09/25 08:50:40;;;;;;;9.82;3.97;;;;;;;12.22;100.00;101559.22;6122208;23;20076;-92
2022/09/25 08:53:42;;;;;;;7.95;3.72;;;;;;;12.26;100.00;101553.09;6119610;23;20016;-92
2022/09/25 08:59:54;;;;;;;12.25;4.13;;;;;;;12.48;100.00;101583.00;6108768;23;20005;-91
2022/09/25 09:02:32;;;;;;;11.93;3.70;;;;;;;12.44;100.00;101570.94;6120091;23;20006;-92
2022/09/25 09:05:00;;;;;;;11.00;3.97;;;;;;;12.39;100.00;101549.38;6148373;23;20443;-93
2022/09/25 09:07:52;;;;;;;9.43;3.25;;;;;;;12.64;100.00;101586.13;6148075;23;20017;-92
2022/09/25 09:10:44;;;;;;;9.25;3.53;;;;;;;12.70;100.00;101582.53;6147648;23;20006;-92
2022/09/25 09:14:05;;;;;;;8.60;3.25;;;;;;;12.65;100.00;101565.31;6148328;23;20494;-92
2022/09/25 09:17:14;;;;;;;14.35;4.07;;;;;;;12.84;100.00;101581.38;6147391;23;20017;-92
2022/09/25 09:19:52;;;;;;;9.02;3.63;;;;;;;12.81;100.00;101563.25;6148205;23;20060;-92
2022/09/25 09:22:38;;;;;;;8.23;3.42;;;;;;;12.83;100.00;101545.84;6147687;23;20119;-91
2022/09/25 09:25:30;;;;;;;9.73;3.63;;;;;;;13.11;100.00;101566.91;6122533;23;20013;-91
2022/09/25 09:28:01;;;;;;;8.98;3.20;;;;;;;13.31;100.00;101569.94;6148128;23;20001;-92
2022/09/25 09:34:24;;;;;;;7.28;2.97;;;;;;;13.65;100.00;101571.72;6132007;23;20474;-92
2022/09/25 09:37:41;;;;;;;7.80;2.33;;;;;;;13.73;96.23;101561.97;6125064;23;20030;-92
2022/09/25 09:40:52;;;;;;;6.57;1.85;;;;;;;13.85;98.67;101579.94;6031011;23;20405;-93
2022/09/25 09:47:01;;;;;;;7.25;1.83;;;;;;;13.93;94.25;101569.28;6122158;23;20045;-93
2022/09/25 09:50:00;;;;;;;7.72;2.30;;;;;;;14.07;94.66;101570.63;6122633;23;20842;-93
2022/09/25 09:53:02;;;;;;;6.65;1.75;;;;;;;13.84;92.04;101534.78;6120966;23;20029;-94
2022/09/25 09:55:49;;;;;;;8.13;1.80;;;;;;;14.03;93.54;101566.41;6122777;23;20064;-93
2022/09/25 09:58:59;;;;;;;;;;;;;;;;;;;;;
2022/09/25 10:01:35;;;;;;;4.50;1.35;;;;;;;14.27;86.71;101558.81;6122489;23;20606;-94
2022/09/25 10:04:15;;;;;;;5.32;1.35;;;;;;;14.41;83.47;101564.53;6117191;23;20009;-93
2022/09/25 10:07:15;;;;;;;3.97;1.50;;;;;;;14.31;87.86;101529.16;6121805;23;20010;-92
2022/09/25 10:10:42;;;;;;;5.65;1.60;;;;;;;14.47;90.47;101533.06;6116253;23;20097;-92
2022/09/25 10:13:59;;;;;;;6.30;2.10;;;;;;;14.61;90.72;101530.91;6059942;23;20010;-93
2022/09/25 10:16:29;;;;;;;6.18;1.70;;;;;;;14.81;86.33;101535.53;6046404;23;20017;-93
2022/09/25 10:19:10;;;;;;;4.72;1.42;;;;;;;14.75;84.29;101526.13;6034577;23;20035;-91
2022/09/25 10:28:55;;;;;;;;;;;;;;;;;;;;;
2022/09/25 10:31:40;;;;;;;6.30;1.75;;;;;;;14.90;86.44;101553.53;6119027;23;20610;-90
2022/09/25 10:34:30;;;;;;;5.97;1.73;;;;;;;14.98;84.30;101549.81;6125239;23;20020;-92
2022/09/25 10:37:21;;;;;;;4.07;1.30;;;;;;;15.02;84.80;101548.78;6115986;23;20463;-92
2022/09/25 10:40:37;;;;;;;4.63;1.30;;;;;;;14.83;83.87;101526.78;6104648;23;20009;-92
2022/09/25 10:43:02;;;;;;;5.57;1.70;;;;;;;14.91;79.58;101556.13;6034285;23;20022;-93
2022/09/25 10:45:54;;;;;;;;;;;;;;;;;;;;;
2022/09/25 10:52:05;;;;;;;5.30;1.20;;;;;;;15.14;83.84;101529.31;6123109;23;20348;-94
2022/09/25 10:58:08;;;;;;;3.28;1.20;;;;;;;15.25;81.01;101542.88;6069602;23;20112;-95
2022/09/25 11:00:54;;;;;;;5.50;1.30;;;;;;;15.26;80.01;101541.97;6087691;23;20010;-94
2022/09/25 11:03:46;;;;;;;4.32;1.10;;;;;;;15.33;77.38;101533.03;6063804;23;20017;-93
2022/09/25 11:06:44;;;;;;;4.90;1.30;;;;;;;15.40;75.50;101542.38;6089841;23;20006;-94
2022/09/25 11:09:31;;;;;;;;;;;;;;;;;;;;;
2022/09/25 11:12:27;;;;;;;3.33;1.00;;;;;;;15.70;75.63;101501.31;6090887;23;20516;-95
2022/09/25 11:15:22;;;;;;;4.85;1.45;;;;;;;15.91;74.11;101504.94;6008711;23;20010;-94
2022/09/25 11:18:02;;;;;;;4.72;1.10;;;;;;;16.09;72.09;101534.84;6069809;23;20032;-94
2022/09/25 11:21:00;;;;;;;4.28;1.27;;;;;;;15.81;70.75;101514.03;6088922;23;20018;-92
2022/09/25 11:24:07;;;;;;;4.55;1.10;;;;;;;15.68;75.45;101544.97;6064913;23;20015;-91
2022/09/25 11:27:34;;;;;;;;;;;;;;;;;;;;;
2022/09/25 11:30:48;;;;;;;2.15;1.08;;;;;;;15.11;74.78;101542.44;6117542;23;20097;-91
2022/09/25 11:33:57;;;;;;;3.85;1.25;;;;;;;14.96;78.06;101535.06;6088346;23;20017;-91
2022/09/25 11:37:16;;;;;;;4.95;1.00;;;;;;;14.96;78.30;101503.75;6057507;23;20006;-91
2022/09/25 11:43:39;;;;;;;1.85;1.00;;;;;;;15.85;75.29;101515.63;6089049;23;20028;-92
2022/09/25 11:47:01;;;;;;;5.85;1.27;;;;;;;16.13;75.91;101492.81;6063291;23;20010;-91
2022/09/25 11:53:16;;;;;;;4.15;1.10;;;;;;;16.63;67.92;101516.31;6092019;23;20051;-93
2022/09/25 11:56:12;;;;;;;4.20;1.00;;;;;;;16.37;70.24;101519.00;6090413;23;20007;-93
2022/09/25 11:59:12;;;;;;;5.57;1.20;;;;;;;15.95;71.18;101514.41;6065654;23;20093;-94
2022/09/25 12:02:32;;;;;;;3.88;1.00;;;;;;;15.60;73.54;101510.41;6004222;23;20003;-92
2022/09/25 12:05:27;;;;;;;5.75;1.10;;;;;;;15.31;73.92;101493.03;6047955;23;20636;-94
2022/09/25 12:08:02;;;;;;;3.83;1.10;;;;;;;15.23;74.43;101508.09;6062381;23;20469;-93
2022/09/25 12:11:01;;;;;;;2.22;0.93;;;;;;;15.07;74.91;101506.03;6062167;23;20246;-93
2022/09/25 12:13:58;;;;;;;2.63;1.10;;;;;;;14.89;75.96;101502.22;6037788;23;20006;-93
2022/09/25 12:16:34;;;;;;;;;;;;;;;;;;;;;
2022/09/25 12:19:55;;;;;;;5.90;1.38;;;;;;;14.89;76.95;101497.00;6061821;23;20520;-93
2022/09/25 12:22:50;;;;;;;6.18;1.27;;;;;;;14.90;76.65;101496.97;5994054;23;20670;-93
2022/09/25 12:25:46;;;;;;;;;;;;;;;15.07;79.28;101492.97;6027303;23;20003;-94
2022/09/25 12:28:24;;;;;;;2.03;1.20;;;;;;;15.29;73.88;101494.84;6025657;23;19972;-93
2022/09/25 12:31:38;;;;;;;3.65;1.33;;;;;;;15.50;74.61;101490.66;6061628;23;20018;-92
2022/09/25 12:34:49;;;;;;;5.03;1.40;;;;;;;15.61;72.71;101483.34;6120113;23;20012;-94
2022/09/25 12:37:48;;;;;;;3.53;1.35;;;;;;;15.79;74.63;101479.25;6061106;23;20010;-93
2022/09/25 12:40:40;;;;;;;4.43;1.33;;;;;;;15.67;72.17;101443.94;6061945;23;20010;-93
2022/09/25 12:43:51;;;;;;;5.30;1.20;;;;;;;15.88;72.67;101462.38;6135243;23;20010;-93
2022/09/25 12:46:51;;;;;;;;;;;;;;;;;;;;;
2022/09/25 12:49:55;;;;;;;3.80;1.20;;;;;;;15.97;72.96;101462.03;6123542;23;20399;-93
2022/09/25 12:52:52;;;;;;;2.85;1.13;;;;;;;15.69;72.03;101452.56;6144707;23;20057;-92
2022/09/25 12:55:30;;;;;;;3.65;1.02;;;;;;;15.45;71.93;101461.22;6122522;23;20041;-93
2022/09/25 12:58:34;;;;;;;2.78;1.17;;;;;;;15.26;75.42;101460.13;6121476;23;20424;-92
2022/09/25 13:01:35;;;;;;;3.53;1.10;;;;;;;14.96;74.50;101451.53;6122598;23;20006;-93
2022/09/25 13:04:33;;;;;;;3.92;1.20;;;;;;;14.75;76.25;101440.00;6092723;23;20010;-92
2022/09/25 13:07:30;;;;;;;2.65;1.10;;;;;;;14.81;73.33;101459.84;6124220;23;20344;-92
2022/09/25 13:09:55;;;;;;;4.70;1.15;;;;;;;14.71;73.11;101454.06;6119628;23;20021;-93
2022/09/25 13:12:39;;;;;;;3.53;1.10;;;;;;;14.55;74.87;101430.19;6121783;23;20009;-92
2022/09/25 13:15:26;;;;;;;2.42;1.00;;;;;;;14.73;75.33;101446.22;6120237;23;20100;-92
2022/09/25 13:18:03;;;;;;;2.25;1.10;;;;;;;14.64;71.82;101431.69;6122526;23;20014;-92
2022/09/25 13:20:56;;;;;;;1.83;1.17;;;;;;;14.79;71.53;101440.78;6121590;23;20029;-92
2022/09/25 13:23:34;;;;;;;7.40;1.20;;;;;;;14.65;71.80;101412.50;6122013;23;20006;-93
2022/09/25 13:26:38;;;;;;;2.25;1.05;;;;;;;14.68;72.01;101417.63;6121914;23;20013;-93
2022/09/25 13:29:43;;;;;;;2.92;1.30;;;;;;;14.73;72.53;101407.06;6121297;23;20010;-91
2022/09/25 13:32:27;;;;;;;4.43;1.13;;;;;;;14.82;71.89;101419.78;6138865;23;20053;-91
2022/09/25 13:35:15;;;;;;;3.55;1.25;;;;;;;14.88;72.61;101406.53;6120053;23;20009;-91
2022/09/25 13:38:12;;;;;;;4.30;1.20;;;;;;;15.12;71.63;101431.88;6121291;23;20013;-91
2022/09/25 13:40:51;;;;;;;4.25;1.15;;;;;;;15.13;70.13;101406.59;6121563;23;20346;-91
2022/09/25 13:43:28;;;;;;;3.28;1.10;;;;;;;15.17;70.34;101416.88;6119929;23;20485;-90
2022/09/25 13:46:41;;;;;;;4.55;1.20;;;;;;;15.23;71.85;101418.44;6122678;23;20009;-91
2022/09/25 13:49:56;;;;;;;4.65;1.00;;;;;;;15.15;72.05;101423.09;6121788;23;20042;-91